Woodland Hills, CA

1:26 AM PDT on September 17, 2014 (GMT -0700)
At Gonzales Drive | Change Station
CLOSE
Current Station
Personal Weather Station
Location: Woodland Hills, CA
Elevation: 984 ft
Nearby Weather Stations

Elev 984 ft 34.17 °N, 118.63 °W | Updated 2 seconds ago

Clear
Clear
76.1 °F
Feels Like 78 °F
N
0.0
Wind Variable Wind from North
Gusts 0.0 mph

Today
High -- | Low -- °F
--% Chance of Precip.
Yesterday
High -- | Low -- °F
Precip. -- in
6:39 AM 6:58 PM
Last Quarter, 38% visible
Pressure 29.72 in
Visibility 10.0 miles
Clouds Clear
Heat Index 78 °F
Dew Point 57 °F
Humidity 51%
Rainfall 0.00 in
Snow Depth Not available.
UV 0 out of 12
Pollen 6.80 out of 12
Ozone Good
PM2.5 Moderate
Flu Activity Not available.
METAR KVNY 170751Z 00000KT 10SM CLR 29/14 A2976 RMK AO2 SLP063 T02890139 404110256

More Conditions Fewer Conditions

Pressure 29.72 in
Visibility 10.0 miles
Clouds Clear
Heat Index 78 °F
Dew Point 57 °F
Humidity 51%
Rainfall 0.00 in
Snow Depth Not available.
UV 0 out of 12
Pollen 6.80 out of 12
Ozone Good
PM2.5 Moderate
Flu Activity Not available.
METAR KVNY 170751Z 00000KT 10SM CLR 29/14 A2976 RMK AO2 SLP063 T02890139 404110256

More Conditions Fewer Conditions

10-Day Weather Forecast

Almanac

Astronomy

Sep. 17, 2014 Rise Set
Actual Time 6:39 AM PDT 6:58 PM PDT
Civil Twilight 6:14 AM PDT 7:23 PM PDT
Nautical Twilight 5:44 AM PDT 7:52 PM PDT
Astronomical Twilight 5:14 AM PDT 8:22 PM PDT
Moon 12:54 AM PDT 3:00 PM PDT
Length of Visible Light 13h 09m
Length of Day
12h 19m
Tomorrow will be 2m 6s shorter.
Last Quarter, 38% of the Moon is Illuminated
Today
Last Quarter
Sep 24
New
Oct 1
First Quarter
Oct 8
Full
Oct 15
Last Quarter

Today's Extremes

State Highs State Lows

Community

WunderPhotos

Upload Photos

1,753,990 photos uploaded!

Nearby

Air Quality

  Air Quality AQ Index Pollutant
Yesterday Moderate
OZONE
Yesterday Moderate
PM2.5
Current Moderate
PM2.5
Current Good
OZONE
Wednesday Good
PM10
Wednesday Moderate
OZONE
Wednesday Good
CO
Wednesday Good
NO2

Snow Depth

Station Depth Elevation
Monitor Pass 0 in 8350 ft
Adin Mountain 1 in 6200 ft
Leavitt Lake 1 in 9400 ft
Blue Lakes 0 in 8000 ft
Summit Meadow 0 in 9122 ft

Earthquake Activity

City Distance Mag. Time & Date
Inyokern, California 125 miles 3.2 5:56 PM PDT
2014-09-14
San Jacinto, California 98 miles 3.0 3:16 PM PDT
2014-09-14
Minimum magnitude displayed is 2.5.

Coastal Water Temperatures

Place Temperature
Santa Monica Pier 72.0 °F
Los Angeles, CA 70.0 °F
La Jolla, CA 70.0 °F

Nearby Weather Stations